sensor_id;sensor_type;location;lat;lon;timestamp;P1;P2;P0
73305;PMS5003;61530;51.158;0.880;2022-08-19T00:00:31;8;6;4
73305;PMS5003;61530;51.158;0.880;2022-08-19T00:01:35;7;7;4
73305;PMS5003;61530;51.158;0.880;2022-08-19T00:02:37;6;6;4
73305;PMS5003;61530;51.158;0.880;2022-08-19T00:03:40;10;8;5
73305;PMS5003;61530;51.158;0.880;2022-08-19T00:04:45;8;6;4
73305;PMS5003;61530;51.158;0.880;2022-08-19T00:05:48;6;5;3
73305;PMS5003;61530;51.158;0.880;2022-08-19T00:06:51;14;10;6
73305;PMS5003;61530;51.158;0.880;2022-08-19T00:07:54;8;6;4
73305;PMS5003;61530;51.158;0.880;2022-08-19T00:08:57;9;8;5
73305;PMS5003;61530;51.158;0.880;2022-08-19T00:10:00;6;6;4
73305;PMS5003;61530;51.158;0.880;2022-08-19T00:11:03;6;6;4
73305;PMS5003;61530;51.158;0.880;2022-08-19T00:12:06;7;6;4
73305;PMS5003;61530;51.158;0.880;2022-08-19T00:13:09;8;8;5
73305;PMS5003;61530;51.158;0.880;2022-08-19T00:14:13;9;8;5
73305;PMS5003;61530;51.158;0.880;2022-08-19T00:15:16;7;7;4
73305;PMS5003;61530;51.158;0.880;2022-08-19T00:16:18;6;6;4
73305;PMS5003;61530;51.158;0.880;2022-08-19T00:17:21;9;7;5
73305;PMS5003;61530;51.158;0.880;2022-08-19T00:18:24;10;7;5
73305;PMS5003;61530;51.158;0.880;2022-08-19T00:19:27;7;7;4
73305;PMS5003;61530;51.158;0.880;2022-08-19T00:20:30;9;8;5
73305;PMS5003;61530;51.158;0.880;2022-08-19T00:21:33;7;7;4
73305;PMS5003;61530;51.158;0.880;2022-08-19T00:22:36;5;5;3
73305;PMS5003;61530;51.158;0.880;2022-08-19T00:23:41;7;7;4
73305;PMS5003;61530;51.158;0.880;2022-08-19T00:24:43;7;6;4
73305;PMS5003;61530;51.158;0.880;2022-08-19T00:25:46;7;7;4
73305;PMS5003;61530;51.158;0.880;2022-08-19T00:26:50;10;7;5
73305;PMS5003;61530;51.158;0.880;2022-08-19T00:27:52;7;7;4
73305;PMS5003;61530;51.158;0.880;2022-08-19T00:28:55;6;6;3
73305;PMS5003;61530;51.158;0.880;2022-08-19T00:29:59;5;5;4
73305;PMS5003;61530;51.158;0.880;2022-08-19T00:31:01;9;7;4
73305;PMS5003;61530;51.158;0.880;2022-08-19T00:32:05;6;6;4
73305;PMS5003;61530;51.158;0.880;2022-08-19T00:33:08;5;5;2
73305;PMS5003;61530;51.158;0.880;2022-08-19T00:34:10;6;6;4
73305;PMS5003;61530;51.158;0.880;2022-08-19T00:35:13;5;5;2
73305;PMS5003;61530;51.158;0.880;2022-08-19T00:36:17;7;7;3
73305;PMS5003;61530;51.158;0.880;2022-08-19T00:37:19;9;8;5
73305;PMS5003;61530;51.158;0.880;2022-08-19T00:38:22;9;7;4
73305;PMS5003;61530;51.158;0.880;2022-08-19T00:39:25;9;7;5
73305;PMS5003;61530;51.158;0.880;2022-08-19T00:40:28;7;7;4
73305;PMS5003;61530;51.158;0.880;2022-08-19T00:41:31;8;5;3
73305;PMS5003;61530;51.158;0.880;2022-08-19T00:42:34;5;5;3
73305;PMS5003;61530;51.158;0.880;2022-08-19T00:43:37;9;8;5
73305;PMS5003;61530;51.158;0.880;2022-08-19T00:44:40;5;5;3
73305;PMS5003;61530;51.158;0.880;2022-08-19T00:45:43;8;6;3
73305;PMS5003;61530;51.158;0.880;2022-08-19T00:46:48;7;6;4
73305;PMS5003;61530;51.158;0.880;2022-08-19T00:47:49;6;6;4
73305;PMS5003;61530;51.158;0.880;2022-08-19T00:48:53;8;5;3
73305;PMS5003;61530;51.158;0.880;2022-08-19T00:49:56;6;6;4
73305;PMS5003;61530;51.158;0.880;2022-08-19T00:50:58;8;6;4
73305;PMS5003;61530;51.158;0.880;2022-08-19T00:52:03;9;8;4
73305;PMS5003;61530;51.158;0.880;2022-08-19T00:53:04;7;6;4
73305;PMS5003;61530;51.158;0.880;2022-08-19T00:54:07;9;6;4
73305;PMS5003;61530;51.158;0.880;2022-08-19T00:55:13;7;7;4
73305;PMS5003;61530;51.158;0.880;2022-08-19T00:56:13;8;7;5
73305;PMS5003;61530;51.158;0.880;2022-08-19T00:57:17;8;7;4
73305;PMS5003;61530;51.158;0.880;2022-08-19T00:58:20;6;6;4
73305;PMS5003;61530;51.158;0.880;2022-08-19T00:59:22;7;7;4
73305;PMS5003;61530;51.158;0.880;2022-08-19T01:00:26;8;6;4
73305;PMS5003;61530;51.158;0.880;2022-08-19T01:01:28;8;7;4
73305;PMS5003;61530;51.158;0.880;2022-08-19T01:02:31;8;7;4
73305;PMS5003;61530;51.158;0.880;2022-08-19T01:03:34;8;7;4
73305;PMS5003;61530;51.158;0.880;2022-08-19T01:04:38;9;7;4
73305;PMS5003;61530;51.158;0.880;2022-08-19T01:05:41;9;8;5
73305;PMS5003;61530;51.158;0.880;2022-08-19T01:06:43;7;6;4
73305;PMS5003;61530;51.158;0.880;2022-08-19T01:07:47;8;8;4
73305;PMS5003;61530;51.158;0.880;2022-08-19T01:08:53;4;4;4
73305;PMS5003;61530;51.158;0.880;2022-08-19T01:09:55;4;4;3
73305;PMS5003;61530;51.158;0.880;2022-08-19T01:10:58;7;6;3
73305;PMS5003;61530;51.158;0.880;2022-08-19T01:12:01;6;6;4
73305;PMS5003;61530;51.158;0.880;2022-08-19T01:13:04;6;5;2
73305;PMS5003;61530;51.158;0.880;2022-08-19T01:14:07;3;3;2
73305;PMS5003;61530;51.158;0.880;2022-08-19T01:15:11;6;6;2
73305;PMS5003;61530;51.158;0.880;2022-08-19T01:16:13;6;5;3
73305;PMS5003;61530;51.158;0.880;2022-08-19T01:17:16;4;4;3
73305;PMS5003;61530;51.158;0.880;2022-08-19T01:18:19;7;6;3
73305;PMS5003;61530;51.158;0.880;2022-08-19T01:19:23;7;5;2
73305;PMS5003;61530;51.158;0.880;2022-08-19T01:20:25;8;6;3
73305;PMS5003;61530;51.158;0.880;2022-08-19T01:22:31;3;3;2
73305;PMS5003;61530;51.158;0.880;2022-08-19T01:23:34;5;5;3
73305;PMS5003;61530;51.158;0.880;2022-08-19T01:24:37;5;5;3
73305;PMS5003;61530;51.158;0.880;2022-08-19T01:25:42;5;5;3
73305;PMS5003;61530;51.158;0.880;2022-08-19T01:26:43;5;5;3
73305;PMS5003;61530;51.158;0.880;2022-08-19T01:27:47;5;5;3
73305;PMS5003;61530;51.158;0.880;2022-08-19T01:28:50;10;6;3
73305;PMS5003;61530;51.158;0.880;2022-08-19T01:29:52;8;5;3
73305;PMS5003;61530;51.158;0.880;2022-08-19T01:30:55;7;7;4
73305;PMS5003;61530;51.158;0.880;2022-08-19T01:31:58;5;5;3
73305;PMS5003;61530;51.158;0.880;2022-08-19T01:33:01;5;5;3
73305;PMS5003;61530;51.158;0.880;2022-08-19T01:34:04;5;5;3
73305;PMS5003;61530;51.158;0.880;2022-08-19T01:35:07;4;4;2
73305;PMS5003;61530;51.158;0.880;2022-08-19T01:36:13;5;5;3
73305;PMS5003;61530;51.158;0.880;2022-08-19T01:37:13;9;9;3
73305;PMS5003;61530;51.158;0.880;2022-08-19T01:38:19;5;5;4
73305;PMS5003;61530;51.158;0.880;2022-08-19T01:39:20;4;4;2
73305;PMS5003;61530;51.158;0.880;2022-08-19T01:40:23;5;5;2
73305;PMS5003;61530;51.158;0.880;2022-08-19T01:41:25;5;5;3
73305;PMS5003;61530;51.158;0.880;2022-08-19T01:42:28;6;4;3
73305;PMS5003;61530;51.158;0.880;2022-08-19T01:43:31;4;4;3
73305;PMS5003;61530;51.158;0.880;2022-08-19T01:44:34;5;5;3
73305;PMS5003;61530;51.158;0.880;2022-08-19T01:45:37;9;5;3
73305;PMS5003;61530;51.158;0.880;2022-08-19T01:46:40;6;6;3
73305;PMS5003;61530;51.158;0.880;2022-08-19T01:47:43;4;4;3
73305;PMS5003;61530;51.158;0.880;2022-08-19T01:48:46;7;7;4
73305;PMS5003;61530;51.158;0.880;2022-08-19T01:49:49;5;5;3
73305;PMS5003;61530;51.158;0.880;2022-08-19T01:50:52;4;4;3
73305;PMS5003;61530;51.158;0.880;2022-08-19T01:51:55;6;6;3
73305;PMS5003;61530;51.158;0.880;2022-08-19T01:52:58;6;4;2
73305;PMS5003;61530;51.158;0.880;2022-08-19T01:54:01;5;5;3
73305;PMS5003;61530;51.158;0.880;2022-08-19T01:55:05;7;6;2
73305;PMS5003;61530;51.158;0.880;2022-08-19T01:56:07;7;6;4
73305;PMS5003;61530;51.158;0.880;2022-08-19T01:57:10;7;6;3
73305;PMS5003;61530;51.158;0.880;2022-08-19T01:58:14;8;6;4
73305;PMS5003;61530;51.158;0.880;2022-08-19T01:59:17;6;6;3
73305;PMS5003;61530;51.158;0.880;2022-08-19T02:00:20;4;4;3
73305;PMS5003;61530;51.158;0.880;2022-08-19T02:01:22;5;5;3
73305;PMS5003;61530;51.158;0.880;2022-08-19T02:02:25;3;3;1
73305;PMS5003;61530;51.158;0.880;2022-08-19T02:03:28;6;4;3
73305;PMS5003;61530;51.158;0.880;2022-08-19T02:04:31;8;5;3
73305;PMS5003;61530;51.158;0.880;2022-08-19T02:05:34;7;6;3
73305;PMS5003;61530;51.158;0.880;2022-08-19T02:06:37;5;5;4
73305;PMS5003;61530;51.158;0.880;2022-08-19T02:07:40;6;6;5
73305;PMS5003;61530;51.158;0.880;2022-08-19T02:08:43;5;5;3
73305;PMS5003;61530;51.158;0.880;2022-08-19T02:09:46;8;7;3
73305;PMS5003;61530;51.158;0.880;2022-08-19T02:10:49;6;5;2
73305;PMS5003;61530;51.158;0.880;2022-08-19T02:11:52;6;6;4
73305;PMS5003;61530;51.158;0.880;2022-08-19T02:12:55;5;5;3
73305;PMS5003;61530;51.158;0.880;2022-08-19T02:13:59;4;4;2
73305;PMS5003;61530;51.158;0.880;2022-08-19T02:15:02;5;4;3
73305;PMS5003;61530;51.158;0.880;2022-08-19T02:16:06;7;6;3
73305;PMS5003;61530;51.158;0.880;2022-08-19T02:17:10;4;4;3
73305;PMS5003;61530;51.158;0.880;2022-08-19T02:18:12;5;5;4
73305;PMS5003;61530;51.158;0.880;2022-08-19T02:19:15;7;5;3
73305;PMS5003;61530;51.158;0.880;2022-08-19T02:20:20;7;6;3
73305;PMS5003;61530;51.158;0.880;2022-08-19T02:21:25;5;5;3
73305;PMS5003;61530;51.158;0.880;2022-08-19T02:22:28;5;5;4
73305;PMS5003;61530;51.158;0.880;2022-08-19T02:23:31;7;7;3
73305;PMS5003;61530;51.158;0.880;2022-08-19T02:24:34;5;5;2
73305;PMS5003;61530;51.158;0.880;2022-08-19T02:25:37;2;2;2
73305;PMS5003;61530;51.158;0.880;2022-08-19T02:26:40;6;6;3
73305;PMS5003;61530;51.158;0.880;2022-08-19T02:27:43;9;5;3
73305;PMS5003;61530;51.158;0.880;2022-08-19T02:28:46;7;6;4
73305;PMS5003;61530;51.158;0.880;2022-08-19T02:29:49;7;7;4
73305;PMS5003;61530;51.158;0.880;2022-08-19T02:30:52;7;6;4
73305;PMS5003;61530;51.158;0.880;2022-08-19T02:31:55;7;6;4
73305;PMS5003;61530;51.158;0.880;2022-08-19T02:33:00;5;4;3
73305;PMS5003;61530;51.158;0.880;2022-08-19T02:34:03;11;8;3
73305;PMS5003;61530;51.158;0.880;2022-08-19T02:35:07;11;10;2
73305;PMS5003;61530;51.158;0.880;2022-08-19T02:36:10;5;4;2
73305;PMS5003;61530;51.158;0.880;2022-08-19T02:37:12;5;5;3
73305;PMS5003;61530;51.158;0.880;2022-08-19T02:38:15;5;5;3
73305;PMS5003;61530;51.158;0.880;2022-08-19T02:39:18;9;7;3
73305;PMS5003;61530;51.158;0.880;2022-08-19T02:40:22;6;5;3
73305;PMS5003;61530;51.158;0.880;2022-08-19T02:41:27;4;4;3
73305;PMS5003;61530;51.158;0.880;2022-08-19T02:42:29;5;5;2
73305;PMS5003;61530;51.158;0.880;2022-08-19T02:43:32;9;8;2
73305;PMS5003;61530;51.158;0.880;2022-08-19T02:44:35;5;5;4
73305;PMS5003;61530;51.158;0.880;2022-08-19T02:45:38;6;6;3
73305;PMS5003;61530;51.158;0.880;2022-08-19T02:46:41;7;6;4
73305;PMS5003;61530;51.158;0.880;2022-08-19T02:47:44;7;6;3
73305;PMS5003;61530;51.158;0.880;2022-08-19T02:48:47;6;5;3
73305;PMS5003;61530;51.158;0.880;2022-08-19T02:49:50;6;4;2
73305;PMS5003;61530;51.158;0.880;2022-08-19T02:50:53;5;5;3
73305;PMS5003;61530;51.158;0.880;2022-08-19T02:51:56;5;5;2
73305;PMS5003;61530;51.158;0.880;2022-08-19T02:52:59;5;4;3
73305;PMS5003;61530;51.158;0.880;2022-08-19T02:54:02;7;5;3
73305;PMS5003;61530;51.158;0.880;2022-08-19T02:55:06;8;6;3
73305;PMS5003;61530;51.158;0.880;2022-08-19T02:56:08;7;5;3
73305;PMS5003;61530;51.158;0.880;2022-08-19T02:57:11;7;7;3
73305;PMS5003;61530;51.158;0.880;2022-08-19T02:58:15;5;4;3
73305;PMS5003;61530;51.158;0.880;2022-08-19T02:59:17;5;4;2
73305;PMS5003;61530;51.158;0.880;2022-08-19T03:00:20;4;4;3
73305;PMS5003;61530;51.158;0.880;2022-08-19T03:01:25;6;4;3
73305;PMS5003;61530;51.158;0.880;2022-08-19T03:02:26;6;6;3
73305;PMS5003;61530;51.158;0.880;2022-08-19T03:03:29;6;5;4
73305;PMS5003;61530;51.158;0.880;2022-08-19T03:04:32;5;4;2
73305;PMS5003;61530;51.158;0.880;2022-08-19T03:05:35;5;3;2
73305;PMS5003;61530;51.158;0.880;2022-08-19T03:06:40;5;4;3
73305;PMS5003;61530;51.158;0.880;2022-08-19T03:07:41;7;6;4
73305;PMS5003;61530;51.158;0.880;2022-08-19T03:08:45;4;4;4
73305;PMS5003;61530;51.158;0.880;2022-08-19T03:09:47;4;4;2
73305;PMS5003;61530;51.158;0.880;2022-08-19T03:10:50;5;5;3
73305;PMS5003;61530;51.158;0.880;2022-08-19T03:11:53;6;5;3
73305;PMS5003;61530;51.158;0.880;2022-08-19T03:12:56;10;5;3
73305;PMS5003;61530;51.158;0.880;2022-08-19T03:14:00;6;6;2
73305;PMS5003;61530;51.158;0.880;2022-08-19T03:15:03;7;4;3
73305;PMS5003;61530;51.158;0.880;2022-08-19T03:16:05;5;5;2
73305;PMS5003;61530;51.158;0.880;2022-08-19T03:17:08;4;4;2
73305;PMS5003;61530;51.158;0.880;2022-08-19T03:18:12;6;6;3
73305;PMS5003;61530;51.158;0.880;2022-08-19T03:19:16;9;8;3
73305;PMS5003;61530;51.158;0.880;2022-08-19T03:20:17;6;4;2
73305;PMS5003;61530;51.158;0.880;2022-08-19T03:21:21;3;3;1
73305;PMS5003;61530;51.158;0.880;2022-08-19T03:22:23;5;4;2
73305;PMS5003;61530;51.158;0.880;2022-08-19T03:23:26;6;4;3
73305;PMS5003;61530;51.158;0.880;2022-08-19T03:24:30;5;5;3
73305;PMS5003;61530;51.158;0.880;2022-08-19T03:25:36;7;5;3
73305;PMS5003;61530;51.158;0.880;2022-08-19T03:26:38;6;6;4
73305;PMS5003;61530;51.158;0.880;2022-08-19T03:27:40;6;6;4
73305;PMS5003;61530;51.158;0.880;2022-08-19T03:28:43;6;5;2
73305;PMS5003;61530;51.158;0.880;2022-08-19T03:29:46;5;5;3
73305;PMS5003;61530;51.158;0.880;2022-08-19T03:30:57;8;6;3
73305;PMS5003;61530;51.158;0.880;2022-08-19T03:31:51;5;5;3
73305;PMS5003;61530;51.158;0.880;2022-08-19T03:32:54;4;4;3
73305;PMS5003;61530;51.158;0.880;2022-08-19T03:33:57;5;5;4
73305;PMS5003;61530;51.158;0.880;2022-08-19T03:35:00;4;4;3
73305;PMS5003;61530;51.158;0.880;2022-08-19T03:36:05;6;5;2
73305;PMS5003;61530;51.158;0.880;2022-08-19T03:37:07;8;6;3
73305;PMS5003;61530;51.158;0.880;2022-08-19T03:38:09;4;4;2
73305;PMS5003;61530;51.158;0.880;2022-08-19T03:39:12;6;5;2
73305;PMS5003;61530;51.158;0.880;2022-08-19T03:40:15;5;5;2
73305;PMS5003;61530;51.158;0.880;2022-08-19T03:41:21;6;5;2
73305;PMS5003;61530;51.158;0.880;2022-08-19T03:42:21;8;7;2
73305;PMS5003;61530;51.158;0.880;2022-08-19T03:43:24;8;6;3
73305;PMS5003;61530;51.158;0.880;2022-08-19T03:44:29;7;5;3
73305;PMS5003;61530;51.158;0.880;2022-08-19T03:45:34;4;3;1
73305;PMS5003;61530;51.158;0.880;2022-08-19T03:46:39;7;6;3
73305;PMS5003;61530;51.158;0.880;2022-08-19T03:47:42;4;4;3
73305;PMS5003;61530;51.158;0.880;2022-08-19T03:48:46;7;6;4
73305;PMS5003;61530;51.158;0.880;2022-08-19T03:49:48;6;5;2
73305;PMS5003;61530;51.158;0.880;2022-08-19T03:50:52;7;5;3
73305;PMS5003;61530;51.158;0.880;2022-08-19T03:51:55;6;5;3
73305;PMS5003;61530;51.158;0.880;2022-08-19T03:52:57;5;4;3
73305;PMS5003;61530;51.158;0.880;2022-08-19T03:54:02;6;5;3
73305;PMS5003;61530;51.158;0.880;2022-08-19T03:55:04;7;6;3
73305;PMS5003;61530;51.158;0.880;2022-08-19T03:56:08;4;4;3
73305;PMS5003;61530;51.158;0.880;2022-08-19T03:57:09;5;5;3
73305;PMS5003;61530;51.158;0.880;2022-08-19T03:58:12;4;4;3
73305;PMS5003;61530;51.158;0.880;2022-08-19T03:59:17;5;4;2
73305;PMS5003;61530;51.158;0.880;2022-08-19T04:00:19;9;6;4
73305;PMS5003;61530;51.158;0.880;2022-08-19T04:01:22;6;5;4
73305;PMS5003;61530;51.158;0.880;2022-08-19T04:02:24;5;5;2
73305;PMS5003;61530;51.158;0.880;2022-08-19T04:03:27;5;5;4
73305;PMS5003;61530;51.158;0.880;2022-08-19T04:04:30;6;4;2
73305;PMS5003;61530;51.158;0.880;2022-08-19T04:05:36;4;4;3
73305;PMS5003;61530;51.158;0.880;2022-08-19T04:06:39;5;4;2
73305;PMS5003;61530;51.158;0.880;2022-08-19T04:07:42;6;6;3
73305;PMS5003;61530;51.158;0.880;2022-08-19T04:08:45;6;6;2
73305;PMS5003;61530;51.158;0.880;2022-08-19T04:09:48;6;5;4
73305;PMS5003;61530;51.158;0.880;2022-08-19T04:10:51;5;5;3
73305;PMS5003;61530;51.158;0.880;2022-08-19T04:11:56;6;6;4
73305;PMS5003;61530;51.158;0.880;2022-08-19T04:12:57;6;3;3
73305;PMS5003;61530;51.158;0.880;2022-08-19T04:14:00;8;6;2
73305;PMS5003;61530;51.158;0.880;2022-08-19T04:15:03;11;9;4
73305;PMS5003;61530;51.158;0.880;2022-08-19T04:16:06;6;6;4
73305;PMS5003;61530;51.158;0.880;2022-08-19T04:17:09;9;8;5
73305;PMS5003;61530;51.158;0.880;2022-08-19T04:18:12;9;7;4
73305;PMS5003;61530;51.158;0.880;2022-08-19T04:19:15;8;7;4
73305;PMS5003;61530;51.158;0.880;2022-08-19T04:20:18;9;9;5
73305;PMS5003;61530;51.158;0.880;2022-08-19T04:21:22;11;10;6
73305;PMS5003;61530;51.158;0.880;2022-08-19T04:22:24;12;11;6
73305;PMS5003;61530;51.158;0.880;2022-08-19T04:23:27;4;4;3
73305;PMS5003;61530;51.158;0.880;2022-08-19T04:24:30;7;4;3
73305;PMS5003;61530;51.158;0.880;2022-08-19T04:25:35;7;5;3
73305;PMS5003;61530;51.158;0.880;2022-08-19T04:26:36;6;6;3
73305;PMS5003;61530;51.158;0.880;2022-08-19T04:27:39;5;5;2
73305;PMS5003;61530;51.158;0.880;2022-08-19T04:28:42;7;5;3
73305;PMS5003;61530;51.158;0.880;2022-08-19T04:29:45;5;4;3
73305;PMS5003;61530;51.158;0.880;2022-08-19T04:30:49;7;5;3
73305;PMS5003;61530;51.158;0.880;2022-08-19T04:31:51;7;6;4
73305;PMS5003;61530;51.158;0.880;2022-08-19T04:32:54;5;5;3
73305;PMS5003;61530;51.158;0.880;2022-08-19T04:33:58;6;5;3
73305;PMS5003;61530;51.158;0.880;2022-08-19T04:35:00;7;3;1
73305;PMS5003;61530;51.158;0.880;2022-08-19T04:36:03;5;4;2
73305;PMS5003;61530;51.158;0.880;2022-08-19T04:37:06;7;5;3
73305;PMS5003;61530;51.158;0.880;2022-08-19T04:38:10;6;5;3
73305;PMS5003;61530;51.158;0.880;2022-08-19T04:39:13;3;3;2
73305;PMS5003;61530;51.158;0.880;2022-08-19T04:40:15;4;4;2
73305;PMS5003;61530;51.158;0.880;2022-08-19T04:41:18;4;4;3
73305;PMS5003;61530;51.158;0.880;2022-08-19T04:42:21;4;4;3
73305;PMS5003;61530;51.158;0.880;2022-08-19T04:43:24;5;4;2
73305;PMS5003;61530;51.158;0.880;2022-08-19T04:44:27;4;4;2
73305;PMS5003;61530;51.158;0.880;2022-08-19T04:45:30;5;3;2
73305;PMS5003;61530;51.158;0.880;2022-08-19T04:46:33;6;5;3
73305;PMS5003;61530;51.158;0.880;2022-08-19T04:47:37;5;5;2
73305;PMS5003;61530;51.158;0.880;2022-08-19T13:44:11;8;8;6
73305;PMS5003;61530;51.158;0.880;2022-08-19T13:45:10;8;7;4
73305;PMS5003;61530;51.158;0.880;2022-08-19T13:46:11;5;5;4
73305;PMS5003;61530;51.158;0.880;2022-08-19T13:47:11;7;6;4
73305;PMS5003;61530;51.158;0.880;2022-08-19T13:48:12;6;5;3
73305;PMS5003;61530;51.158;0.880;2022-08-19T13:49:13;8;7;5
73305;PMS5003;61530;51.158;0.880;2022-08-19T13:50:14;8;8;6
73305;PMS5003;61530;51.158;0.880;2022-08-19T13:51:14;8;8;5
73305;PMS5003;61530;51.158;0.880;2022-08-19T13:52:15;10;10;6
73305;PMS5003;61530;51.158;0.880;2022-08-19T13:53:16;7;7;5
73305;PMS5003;61530;51.158;0.880;2022-08-19T13:54:16;9;9;5
73305;PMS5003;61530;51.158;0.880;2022-08-19T13:55:17;6;6;4
73305;PMS5003;61530;51.158;0.880;2022-08-19T13:56:18;11;11;8
73305;PMS5003;61530;51.158;0.880;2022-08-19T13:57:18;24;22;17
73305;PMS5003;61530;51.158;0.880;2022-08-19T13:58:19;22;21;14
73305;PMS5003;61530;51.158;0.880;2022-08-19T13:59:20;13;10;7
73305;PMS5003;61530;51.158;0.880;2022-08-19T14:00:21;9;9;7
73305;PMS5003;61530;51.158;0.880;2022-08-19T14:01:21;5;5;4
73305;PMS5003;61530;51.158;0.880;2022-08-19T14:02:22;9;9;5
73305;PMS5003;61530;51.158;0.880;2022-08-19T14:03:22;10;10;8
73305;PMS5003;61530;51.158;0.880;2022-08-19T14:04:25;11;10;8
73305;PMS5003;61530;51.158;0.880;2022-08-19T14:05:27;10;9;7
73305;PMS5003;61530;51.158;0.880;2022-08-19T14:06:26;9;9;7
73305;PMS5003;61530;51.158;0.880;2022-08-19T14:07:27;11;10;7
73305;PMS5003;61530;51.158;0.880;2022-08-19T14:08:28;10;10;7
73305;PMS5003;61530;51.158;0.880;2022-08-19T14:09:28;6;5;4
73305;PMS5003;61530;51.158;0.880;2022-08-19T14:10:29;11;11;7
73305;PMS5003;61530;51.158;0.880;2022-08-19T14:11:30;9;9;7
73305;PMS5003;61530;51.158;0.880;2022-08-19T14:12:30;7;6;4
73305;PMS5003;61530;51.158;0.880;2022-08-19T14:13:31;10;10;6
73305;PMS5003;61530;51.158;0.880;2022-08-19T14:14:31;10;8;7
73305;PMS5003;61530;51.158;0.880;2022-08-19T14:15:32;12;12;8
73305;PMS5003;61530;51.158;0.880;2022-08-19T14:16:34;9;8;5
73305;PMS5003;61530;51.158;0.880;2022-08-19T14:17:37;5;5;4
73305;PMS5003;61530;51.158;0.880;2022-08-19T14:18:36;4;2;2
73305;PMS5003;61530;51.158;0.880;2022-08-19T14:19:36;3;3;3
73305;PMS5003;61530;51.158;0.880;2022-08-19T14:20:37;5;5;4
73305;PMS5003;61530;51.158;0.880;2022-08-19T14:21:37;7;7;5
73305;PMS5003;61530;51.158;0.880;2022-08-19T14:22:39;8;8;6
73305;PMS5003;61530;51.158;0.880;2022-08-19T14:23:39;8;8;5
73305;PMS5003;61530;51.158;0.880;2022-08-19T14:24:39;9;8;5
73305;PMS5003;61530;51.158;0.880;2022-08-19T14:25:40;7;5;4
73305;PMS5003;61530;51.158;0.880;2022-08-19T14:26:41;5;5;3
73305;PMS5003;61530;51.158;0.880;2022-08-19T14:27:41;3;3;2
73305;PMS5003;61530;51.158;0.880;2022-08-19T14:28:42;7;7;5
73305;PMS5003;61530;51.158;0.880;2022-08-19T14:29:42;7;7;4
73305;PMS5003;61530;51.158;0.880;2022-08-19T14:30:43;8;7;5
73305;PMS5003;61530;51.158;0.880;2022-08-19T14:31:44;5;5;3
73305;PMS5003;61530;51.158;0.880;2022-08-19T14:32:44;3;2;1
73305;PMS5003;61530;51.158;0.880;2022-08-19T14:33:46;4;4;3
73305;PMS5003;61530;51.158;0.880;2022-08-19T14:34:46;5;5;3
73305;PMS5003;61530;51.158;0.880;2022-08-19T14:35:47;5;4;2
73305;PMS5003;61530;51.158;0.880;2022-08-19T14:36:47;2;2;2
73305;PMS5003;61530;51.158;0.880;2022-08-19T14:37:49;3;3;2
73305;PMS5003;61530;51.158;0.880;2022-08-19T14:38:49;3;3;2
73305;PMS5003;61530;51.158;0.880;2022-08-19T14:39:49;4;4;3
73305;PMS5003;61530;51.158;0.880;2022-08-19T14:40:50;4;4;2
73305;PMS5003;61530;51.158;0.880;2022-08-19T14:41:51;3;3;2
73305;PMS5003;61530;51.158;0.880;2022-08-19T14:42:51;2;2;2
73305;PMS5003;61530;51.158;0.880;2022-08-19T14:43:53;3;3;2
73305;PMS5003;61530;51.158;0.880;2022-08-19T14:44:53;2;2;2
73305;PMS5003;61530;51.158;0.880;2022-08-19T14:45:53;3;3;1
73305;PMS5003;61530;51.158;0.880;2022-08-19T14:46:53;3;3;2
73305;PMS5003;61530;51.158;0.880;2022-08-19T14:47:54;4;4;1
73305;PMS5003;61530;51.158;0.880;2022-08-19T14:48:55;6;5;3
73305;PMS5003;61530;51.158;0.880;2022-08-19T14:49:56;7;6;4
73305;PMS5003;61530;51.158;0.880;2022-08-19T14:50:57;6;4;3
73305;PMS5003;61530;51.158;0.880;2022-08-19T14:51:58;3;3;2
73305;PMS5003;61530;51.158;0.880;2022-08-19T14:52:59;4;3;2
73305;PMS5003;61530;51.158;0.880;2022-08-19T14:53:59;6;5;3
73305;PMS5003;61530;51.158;0.880;2022-08-19T14:55:00;4;4;3
73305;PMS5003;61530;51.158;0.880;2022-08-19T14:56:00;2;2;1
73305;PMS5003;61530;51.158;0.880;2022-08-19T14:57:01;4;3;2
73305;PMS5003;61530;51.158;0.880;2022-08-19T14:58:02;4;4;2
73305;PMS5003;61530;51.158;0.880;2022-08-19T14:59:02;5;3;3
73305;PMS5003;61530;51.158;0.880;2022-08-19T15:00:03;4;4;2
73305;PMS5003;61530;51.158;0.880;2022-08-19T15:01:04;2;2;2
73305;PMS5003;61530;51.158;0.880;2022-08-19T15:02:04;3;3;1
73305;PMS5003;61530;51.158;0.880;2022-08-19T15:03:05;3;3;2
73305;PMS5003;61530;51.158;0.880;2022-08-19T15:04:05;5;4;3
73305;PMS5003;61530;51.158;0.880;2022-08-19T15:05:06;4;4;2
73305;PMS5003;61530;51.158;0.880;2022-08-19T15:06:07;3;3;2
73305;PMS5003;61530;51.158;0.880;2022-08-19T15:07:07;2;2;2
73305;PMS5003;61530;51.158;0.880;2022-08-19T15:08:08;2;2;2
73305;PMS5003;61530;51.158;0.880;2022-08-19T15:09:09;3;3;2
73305;PMS5003;61530;51.158;0.880;2022-08-19T15:10:11;3;3;1
73305;PMS5003;61530;51.158;0.880;2022-08-19T15:11:11;4;3;2
73305;PMS5003;61530;51.158;0.880;2022-08-19T15:12:11;1;1;1
73305;PMS5003;61530;51.158;0.880;2022-08-19T15:13:11;2;2;1
73305;PMS5003;61530;51.158;0.880;2022-08-19T15:14:12;5;3;2
73305;PMS5003;61530;51.158;0.880;2022-08-19T15:15:13;2;2;2
73305;PMS5003;61530;51.158;0.880;2022-08-19T15:16:13;3;3;2
73305;PMS5003;61530;51.158;0.880;2022-08-19T15:17:14;2;2;2
73305;PMS5003;61530;51.158;0.880;2022-08-19T15:18:14;6;3;3
73305;PMS5003;61530;51.158;0.880;2022-08-19T15:19:15;2;2;1
73305;PMS5003;61530;51.158;0.880;2022-08-19T15:20:16;2;2;2
73305;PMS5003;61530;51.158;0.880;2022-08-19T15:21:17;3;3;2
73305;PMS5003;61530;51.158;0.880;2022-08-19T15:22:17;3;3;2
73305;PMS5003;61530;51.158;0.880;2022-08-19T15:23:18;2;2;2
73305;PMS5003;61530;51.158;0.880;2022-08-19T15:24:19;2;2;0
73305;PMS5003;61530;51.158;0.880;2022-08-19T15:25:20;2;2;1
73305;PMS5003;61530;51.158;0.880;2022-08-19T15:26:20;1;1;1
73305;PMS5003;61530;51.158;0.880;2022-08-19T15:27:21;3;3;2
73305;PMS5003;61530;51.158;0.880;2022-08-19T15:28:22;4;4;2
73305;PMS5003;61530;51.158;0.880;2022-08-19T15:29:22;3;3;2
73305;PMS5003;61530;51.158;0.880;2022-08-19T15:30:24;3;3;2
73305;PMS5003;61530;51.158;0.880;2022-08-19T15:31:23;5;5;3
73305;PMS5003;61530;51.158;0.880;2022-08-19T15:32:23;5;4;3
73305;PMS5003;61530;51.158;0.880;2022-08-19T15:33:24;4;3;2
73305;PMS5003;61530;51.158;0.880;2022-08-19T15:34:25;3;3;2
73305;PMS5003;61530;51.158;0.880;2022-08-19T15:35:27;3;2;1
73305;PMS5003;61530;51.158;0.880;2022-08-19T15:36:27;4;4;3
73305;PMS5003;61530;51.158;0.880;2022-08-19T15:37:27;5;3;1
73305;PMS5003;61530;51.158;0.880;2022-08-19T15:38:28;2;2;2
73305;PMS5003;61530;51.158;0.880;2022-08-19T15:39:29;3;3;3
73305;PMS5003;61530;51.158;0.880;2022-08-19T15:40:31;6;5;3
73305;PMS5003;61530;51.158;0.880;2022-08-19T15:41:32;4;4;3
73305;PMS5003;61530;51.158;0.880;2022-08-19T15:42:33;3;3;3
73305;PMS5003;61530;51.158;0.880;2022-08-19T15:43:33;7;7;5
73305;PMS5003;61530;51.158;0.880;2022-08-19T15:44:34;7;6;4
73305;PMS5003;61530;51.158;0.880;2022-08-19T15:45:35;6;5;2
73305;PMS5003;61530;51.158;0.880;2022-08-19T15:46:36;6;5;4
73305;PMS5003;61530;51.158;0.880;2022-08-19T15:47:36;6;6;3
73305;PMS5003;61530;51.158;0.880;2022-08-19T15:48:37;8;8;7
73305;PMS5003;61530;51.158;0.880;2022-08-19T15:49:37;8;7;4
73305;PMS5003;61530;51.158;0.880;2022-08-19T15:50:38;6;5;4
73305;PMS5003;61530;51.158;0.880;2022-08-19T15:51:39;8;7;5
73305;PMS5003;61530;51.158;0.880;2022-08-19T15:52:44;4;4;2
73305;PMS5003;61530;51.158;0.880;2022-08-19T15:53:40;3;3;3
73305;PMS5003;61530;51.158;0.880;2022-08-19T15:54:42;3;3;2
73305;PMS5003;61530;51.158;0.880;2022-08-19T15:55:43;10;7;5
73305;PMS5003;61530;51.158;0.880;2022-08-19T15:56:43;6;6;4